createdAt,value
2023-03-17T00:01:51.314Z,7.00
2023-03-17T00:04:19.442Z,5.88
2023-03-17T00:06:47.590Z,5.53
2023-03-17T00:09:17.146Z,5.28
2023-03-17T00:11:45.444Z,4.63
2023-03-17T00:14:12.483Z,7.13
2023-03-17T00:16:42.944Z,6.13
2023-03-17T00:19:20.087Z,5.80
2023-03-17T00:21:47.136Z,5.55
2023-03-17T00:24:15.162Z,4.47
2023-03-17T00:26:42.612Z,5.03
2023-03-17T00:29:09.927Z,5.70
2023-03-17T00:31:38.174Z,4.93
2023-03-17T00:34:05.853Z,6.45
2023-03-17T00:36:33.651Z,5.03
2023-03-17T00:39:01.657Z,5.03
2023-03-17T00:41:29.502Z,6.40
2023-03-17T00:43:57.307Z,5.65
2023-03-17T00:46:27.468Z,8.48
2023-03-17T00:48:55.174Z,7.43
2023-03-17T00:51:22.027Z,7.43
2023-03-17T00:53:48.874Z,7.55
2023-03-17T00:56:20.855Z,6.97
2023-03-17T00:58:48.265Z,4.97
2023-03-17T01:01:16.314Z,5.53
2023-03-17T01:03:43.176Z,5.37
2023-03-17T01:06:13.733Z,7.38
2023-03-17T01:08:41.468Z,6.13
2023-03-17T01:11:16.526Z,6.50
2023-03-17T01:13:43.443Z,6.07
2023-03-17T01:16:11.143Z,5.57
2023-03-17T01:18:38.402Z,4.82
2023-03-17T01:21:05.558Z,5.15
2023-03-17T01:23:32.918Z,5.45
2023-03-17T01:26:00.162Z,5.22
2023-03-17T01:28:27.185Z,5.10
2023-03-17T01:30:53.858Z,5.55
2023-03-17T01:33:20.781Z,6.95
2023-03-17T01:35:47.821Z,5.72
2023-03-17T01:38:15.206Z,8.35
2023-03-17T01:40:51.005Z,5.03
2023-03-17T01:43:22.554Z,7.68
2023-03-17T01:46:32.036Z,4.95
2023-03-17T01:49:30.285Z,7.43
2023-03-17T01:52:06.515Z,5.38
2023-03-17T01:54:39.893Z,5.27
2023-03-17T01:57:21.355Z,6.05
2023-03-17T01:59:52.645Z,5.07
2023-03-17T02:02:24.623Z,5.55
2023-03-17T02:04:52.244Z,6.15
2023-03-17T02:07:20.636Z,5.00
2023-03-17T02:09:47.916Z,6.32
2023-03-17T02:12:15.307Z,4.20
2023-03-17T02:14:42.044Z,5.53
2023-03-17T02:17:08.986Z,5.18
2023-03-17T02:19:35.784Z,4.33
2023-03-17T02:22:02.726Z,5.32
2023-03-17T02:24:43.243Z,4.97
2023-03-17T02:27:13.481Z,9.55
2023-03-17T02:29:40.771Z,5.75
2023-03-17T02:32:09.949Z,5.17
2023-03-17T02:34:37.299Z,4.78
2023-03-17T02:37:04.661Z,6.22
2023-03-17T02:39:32.135Z,5.05
2023-03-17T02:41:59.380Z,6.32
2023-03-17T02:44:27.138Z,6.30
2023-03-17T02:46:54.232Z,4.97
2023-03-17T02:49:21.710Z,6.03
2023-03-17T02:51:48.480Z,5.88
2023-03-17T02:54:15.366Z,4.85
2023-03-17T02:56:42.176Z,6.07
2023-03-17T02:59:09.410Z,6.57
2023-03-17T03:01:36.409Z,4.95
2023-03-17T03:04:04.033Z,6.10
2023-03-17T03:06:32.076Z,6.55
2023-03-17T03:08:59.095Z,4.33
2023-03-17T03:11:26.553Z,5.35
2023-03-17T03:13:53.510Z,6.65
2023-03-17T03:16:21.121Z,4.10
2023-03-17T03:18:48.092Z,7.07
2023-03-17T03:21:15.375Z,6.50
2023-03-17T03:23:43.351Z,6.20
2023-03-17T03:26:10.147Z,6.20
2023-03-17T03:28:37.339Z,5.30
2023-03-17T03:31:05.521Z,6.22
2023-03-17T03:33:33.601Z,4.53
2023-03-17T03:36:00.565Z,6.00
2023-03-17T03:38:28.435Z,5.40
2023-03-17T03:40:55.180Z,5.70
2023-03-17T03:43:23.938Z,4.65
2023-03-17T03:45:51.713Z,4.40
2023-03-17T03:48:18.997Z,5.40
2023-03-17T03:50:45.912Z,4.60
2023-03-17T03:53:12.934Z,5.72
2023-03-17T03:55:39.974Z,5.10
2023-03-17T03:58:06.842Z,4.73
2023-03-17T04:00:33.585Z,5.03
2023-03-17T04:03:01.397Z,5.80
2023-03-17T04:05:28.409Z,4.88
2023-03-17T04:07:55.163Z,6.88
2023-03-17T04:10:23.178Z,6.60
2023-03-17T04:12:50.327Z,5.63
2023-03-17T04:15:18.563Z,7.00
2023-03-17T04:17:45.472Z,5.10
2023-03-17T04:20:14.204Z,6.72
2023-03-17T04:22:44.879Z,5.80
2023-03-17T04:25:14.262Z,5.47
2023-03-17T04:27:42.432Z,5.72
2023-03-17T04:30:13.903Z,6.50
2023-03-17T04:32:42.879Z,4.88
2023-03-17T04:35:15.088Z,6.50
2023-03-17T04:37:42.183Z,5.82
2023-03-17T04:40:10.719Z,6.18
2023-03-17T04:42:37.950Z,5.57
2023-03-17T04:45:11.304Z,5.55
2023-03-17T04:47:38.313Z,4.70
2023-03-17T04:50:06.001Z,5.18
2023-03-17T04:52:33.029Z,4.70
2023-03-17T04:54:59.784Z,7.32
2023-03-17T04:57:26.556Z,7.18
2023-03-17T04:59:53.251Z,4.63
2023-03-17T05:02:20.281Z,5.97
2023-03-17T05:04:47.808Z,3.95
2023-03-17T05:07:15.317Z,5.38
2023-03-17T05:09:42.526Z,5.35
2023-03-17T05:12:10.021Z,4.67
2023-03-17T05:14:37.270Z,5.38
2023-03-17T05:17:04.718Z,3.70
2023-03-17T05:19:32.029Z,5.68
2023-03-17T05:21:58.825Z,5.38
2023-03-17T05:24:25.839Z,6.57
2023-03-17T05:26:52.980Z,4.38
2023-03-17T05:29:20.270Z,4.90
2023-03-17T05:31:47.381Z,6.45
2023-03-17T05:34:14.135Z,6.22
2023-03-17T05:36:40.920Z,5.20
2023-03-17T05:39:07.602Z,5.45
2023-03-17T05:41:34.912Z,4.93
2023-03-17T05:44:01.741Z,9.05
2023-03-17T05:46:28.663Z,4.43
2023-03-17T05:48:55.832Z,4.37
2023-03-17T05:51:22.906Z,6.68
2023-03-17T05:53:49.682Z,5.53
2023-03-17T05:56:16.616Z,6.88
2023-03-17T05:58:43.523Z,4.25
2023-03-17T06:01:11.119Z,6.27
2023-03-17T06:03:38.979Z,6.13
2023-03-17T06:06:06.668Z,4.10
2023-03-17T06:08:33.679Z,4.47
2023-03-17T06:11:00.761Z,4.80
2023-03-17T06:13:27.689Z,6.33
2023-03-17T06:15:54.635Z,5.53
2023-03-17T06:18:22.212Z,5.45
2023-03-17T06:20:48.961Z,4.80
2023-03-17T06:23:17.526Z,6.95
2023-03-17T06:25:45.915Z,3.97
2023-03-17T06:28:13.638Z,6.03
2023-03-17T06:30:41.813Z,6.63
2023-03-17T06:33:11.605Z,6.95
2023-03-17T06:35:39.848Z,8.43
2023-03-17T06:38:07.832Z,8.23
2023-03-17T06:40:35.143Z,6.38
2023-03-17T06:43:02.245Z,5.90
2023-03-17T06:45:30.608Z,8.30
2023-03-17T06:47:57.928Z,5.63
2023-03-17T06:50:25.964Z,6.10
2023-03-17T06:52:52.710Z,6.30
2023-03-17T06:55:19.577Z,5.10
2023-03-17T06:57:48.326Z,7.07
2023-03-17T07:00:16.348Z,4.45
2023-03-17T07:02:43.615Z,7.27
2023-03-17T07:05:10.339Z,4.55
2023-03-17T07:07:39.048Z,7.22
2023-03-17T07:10:07.041Z,6.22
2023-03-17T07:12:34.263Z,6.32
2023-03-17T07:15:01.625Z,5.50
2023-03-17T07:17:28.909Z,4.70
2023-03-17T07:19:56.380Z,9.48
2023-03-17T07:22:23.530Z,8.65
2023-03-17T07:24:52.087Z,4.45
2023-03-17T07:27:21.633Z,5.87
2023-03-17T07:29:49.688Z,4.90
2023-03-17T07:32:16.670Z,4.93
2023-03-17T07:34:43.658Z,4.63
2023-03-17T07:37:12.578Z,5.45
2023-03-17T07:39:39.895Z,5.67
2023-03-17T07:42:07.167Z,5.13
2023-03-17T07:44:35.302Z,6.50
2023-03-17T07:47:01.988Z,4.72
2023-03-17T07:49:40.889Z,4.38
2023-03-17T07:52:10.629Z,6.50
2023-03-17T07:54:37.705Z,5.22
2023-03-17T07:57:05.502Z,4.57
2023-03-17T07:59:32.745Z,4.75
2023-03-17T08:02:01.225Z,4.63
2023-03-17T08:04:28.985Z,6.37
2023-03-17T08:06:55.945Z,4.40
2023-03-17T08:09:23.183Z,6.40
2023-03-17T08:11:50.624Z,4.72
2023-03-17T08:14:17.398Z,6.60
2023-03-17T08:16:44.392Z,4.57
2023-03-17T08:19:11.211Z,5.95
2023-03-17T08:21:38.413Z,5.70
2023-03-17T08:24:05.855Z,5.18
2023-03-17T08:26:32.813Z,7.68
2023-03-17T08:28:59.564Z,4.33
2023-03-17T08:31:27.260Z,7.63
2023-03-17T08:33:57.014Z,5.25
2023-03-17T08:36:24.156Z,5.65
2023-03-17T08:38:51.005Z,5.22
2023-03-17T08:41:21.110Z,6.57
2023-03-17T08:43:48.496Z,6.32
2023-03-17T08:46:16.885Z,6.20
2023-03-17T08:48:45.279Z,6.07
2023-03-17T08:51:12.975Z,5.28
2023-03-17T08:53:40.385Z,5.33
2023-03-17T08:56:08.386Z,5.05
2023-03-17T08:58:37.486Z,5.75
2023-03-17T09:01:04.955Z,4.07
2023-03-17T09:03:33.130Z,5.07
2023-03-17T09:06:00.433Z,7.83
2023-03-17T09:08:27.738Z,4.60
2023-03-17T09:10:54.664Z,5.95
2023-03-17T09:13:22.856Z,5.10
2023-03-17T09:15:52.007Z,8.85
2023-03-17T09:18:21.942Z,5.07
2023-03-17T09:20:48.942Z,7.57
2023-03-17T09:23:16.482Z,5.65
2023-03-17T09:25:43.692Z,6.20
2023-03-17T09:28:12.273Z,6.78
2023-03-17T09:30:42.723Z,6.73
2023-03-17T09:33:11.944Z,5.95
2023-03-17T09:35:40.085Z,5.78
2023-03-17T09:38:08.513Z,6.22
2023-03-17T09:41:20.842Z,5.78
2023-03-17T09:44:02.644Z,7.00
2023-03-17T09:47:15.396Z,6.97
2023-03-17T09:49:51.751Z,5.18
2023-03-17T09:52:34.460Z,7.43
2023-03-17T09:55:05.932Z,5.80
2023-03-17T09:57:40.348Z,8.40
2023-03-17T10:00:18.067Z,5.63
2023-03-17T10:02:46.119Z,6.60
2023-03-17T10:05:21.919Z,6.60
2023-03-17T10:08:15.783Z,6.50
2023-03-17T10:11:03.135Z,5.07
2023-03-17T10:13:35.613Z,5.28
2023-03-17T10:16:12.252Z,6.18
2023-03-17T10:18:49.903Z,7.88
2023-03-17T10:21:24.238Z,8.07
2023-03-17T10:23:52.585Z,8.00
2023-03-17T10:26:42.855Z,6.82
2023-03-17T10:29:22.789Z,7.80
2023-03-17T10:31:51.604Z,7.05
2023-03-17T10:34:29.171Z,9.25
2023-03-17T10:37:01.495Z,10.57
2023-03-17T10:39:32.534Z,7.97
2023-03-17T10:42:09.348Z,6.95
2023-03-17T10:44:58.836Z,8.57
2023-03-17T10:47:31.764Z,7.57
2023-03-17T10:50:21.609Z,7.73
2023-03-17T10:52:54.097Z,7.82
2023-03-17T10:55:23.125Z,10.27
2023-03-17T10:58:02.276Z,8.05
2023-03-17T11:00:35.057Z,10.57
2023-03-17T11:03:31.511Z,8.47
2023-03-17T11:06:03.925Z,7.15
2023-03-17T11:08:36.694Z,8.50
2023-03-17T11:11:08.361Z,7.82
2023-03-17T11:13:35.212Z,8.13
2023-03-17T11:16:23.372Z,8.33
2023-03-17T11:18:57.592Z,7.95
2023-03-17T11:21:47.946Z,7.65
2023-03-17T11:24:21.040Z,8.15
2023-03-17T11:26:47.807Z,9.45
2023-03-17T11:30:06.515Z,8.97
2023-03-17T11:32:41.727Z,7.78
2023-03-17T11:35:39.904Z,10.85
2023-03-17T11:38:12.875Z,8.82
2023-03-17T11:40:57.668Z,8.07
2023-03-17T11:43:37.361Z,9.03
2023-03-17T11:46:12.899Z,9.25
2023-03-17T11:49:03.496Z,8.90
2023-03-17T11:51:59.333Z,7.65
2023-03-17T11:54:35.311Z,8.98
2023-03-17T11:57:09.505Z,8.17
2023-03-17T11:59:39.795Z,9.45
2023-03-17T12:02:21.466Z,8.05
2023-03-17T12:04:58.303Z,10.90
2023-03-17T12:07:47.004Z,7.25
2023-03-17T12:10:23.589Z,8.70
2023-03-17T12:12:56.623Z,12.15
2023-03-17T12:15:43.554Z,10.00
2023-03-17T12:18:32.705Z,7.45
2023-03-17T12:21:07.627Z,9.35
2023-03-17T12:23:45.267Z,9.70
2023-03-17T12:26:47.868Z,8.85
2023-03-17T12:29:25.097Z,9.10
2023-03-17T12:32:17.714Z,8.88
2023-03-17T12:35:11.347Z,8.10
2023-03-17T12:37:40.428Z,8.63
2023-03-17T12:40:17.333Z,7.18
2023-03-17T12:42:56.470Z,9.57
2023-03-17T12:45:44.737Z,10.48
2023-03-17T12:48:38.757Z,9.65
2023-03-17T12:51:24.154Z,7.00
2023-03-17T12:53:51.888Z,9.95
2023-03-17T12:56:31.828Z,8.35
2023-03-17T12:59:08.735Z,7.90
2023-03-17T13:01:45.764Z,8.52
2023-03-17T13:04:26.486Z,8.03
2023-03-17T13:07:12.892Z,11.45
2023-03-17T13:09:54.523Z,8.65
2023-03-17T13:12:40.075Z,10.63
2023-03-17T13:15:25.483Z,10.13
2023-03-17T13:18:10.597Z,9.50
2023-03-17T13:20:40.447Z,10.00
2023-03-17T13:23:10.236Z,10.00
2023-03-17T13:25:41.571Z,9.02
2023-03-17T13:28:14.885Z,10.15
2023-03-17T13:30:53.959Z,10.77
2023-03-17T13:33:27.193Z,9.50
2023-03-17T13:36:09.213Z,9.48
2023-03-17T13:39:18.310Z,11.73
2023-03-17T13:42:20.899Z,10.00
2023-03-17T13:45:04.253Z,10.13
2023-03-17T13:47:42.296Z,10.32
2023-03-17T13:50:16.593Z,10.32
2023-03-17T13:52:52.744Z,9.57
2023-03-17T13:55:20.417Z,8.88
2023-03-17T13:57:57.320Z,11.07
2023-03-17T14:00:27.822Z,9.48
2023-03-17T14:03:05.633Z,10.57
2023-03-17T14:05:38.016Z,10.82
2023-03-17T14:08:06.475Z,14.05
2023-03-17T14:10:34.318Z,12.13
2023-03-17T14:13:22.641Z,11.38
2023-03-17T14:16:20.110Z,12.10
2023-03-17T14:18:51.923Z,8.70
2023-03-17T14:21:45.469Z,10.45
2023-03-17T14:24:31.421Z,9.27
2023-03-17T14:27:03.704Z,10.10
2023-03-17T14:29:32.334Z,8.32
2023-03-17T14:32:15.949Z,8.93
2023-03-17T14:34:48.939Z,8.77
2023-03-17T14:37:16.557Z,8.63
2023-03-17T14:39:49.086Z,7.18
2023-03-17T14:42:19.868Z,10.30
2023-03-17T14:44:46.813Z,10.20
2023-03-17T14:47:25.848Z,9.38
2023-03-17T14:49:55.687Z,12.53
2023-03-17T14:52:28.664Z,10.07
2023-03-17T14:54:59.134Z,9.13
2023-03-17T14:57:33.475Z,9.73
2023-03-17T15:00:27.505Z,12.65
2023-03-17T15:02:57.446Z,9.37
2023-03-17T15:05:36.689Z,8.30
2023-03-17T15:08:36.657Z,12.50
2023-03-17T15:11:05.611Z,9.13
2023-03-17T15:13:37.323Z,9.88
2023-03-17T15:16:18.653Z,12.67
2023-03-17T15:18:46.217Z,16.35
2023-03-17T15:21:28.852Z,9.68
2023-03-17T15:23:56.021Z,8.25
2023-03-17T15:26:44.601Z,10.60
2023-03-17T15:29:11.340Z,16.10
2023-03-17T15:31:39.204Z,10.65
2023-03-17T15:34:06.011Z,8.77
2023-03-17T15:36:33.411Z,15.70
2023-03-17T15:39:02.179Z,14.18
2023-03-17T15:41:29.018Z,11.27
2023-03-17T15:43:56.759Z,14.05
2023-03-17T15:46:33.593Z,12.05
2023-03-17T15:49:03.417Z,11.43
2023-03-17T15:51:30.422Z,12.73
2023-03-17T15:53:58.347Z,16.27
2023-03-17T15:56:26.137Z,9.40
2023-03-17T15:58:52.881Z,10.80
2023-03-17T16:01:20.849Z,11.68
2023-03-17T16:03:49.481Z,8.82
2023-03-17T16:06:21.373Z,11.37
2023-03-17T16:08:51.852Z,12.23
2023-03-17T16:11:28.212Z,12.25
2023-03-17T16:13:57.098Z,12.50
2023-03-17T16:16:31.744Z,10.50
2023-03-17T16:18:59.374Z,12.80
2023-03-17T16:21:26.488Z,12.43
2023-03-17T16:23:54.539Z,13.32
2023-03-17T16:26:21.318Z,14.52
2023-03-17T16:28:49.195Z,14.75
2023-03-17T16:31:30.236Z,11.60
2023-03-17T16:33:58.300Z,11.73
2023-03-17T16:36:25.853Z,13.82
2023-03-17T16:38:52.936Z,13.00
2023-03-17T16:41:27.046Z,17.13
2023-03-17T16:43:58.826Z,11.90
2023-03-17T16:46:27.739Z,12.63
2023-03-17T16:48:56.084Z,11.38
2023-03-17T16:51:24.841Z,12.30
2023-03-17T16:53:51.746Z,12.00
2023-03-17T16:56:21.730Z,13.17
2023-03-17T16:58:49.162Z,11.27
2023-03-17T17:01:20.606Z,12.82
2023-03-17T17:03:48.486Z,14.60
2023-03-17T17:06:15.912Z,14.05
2023-03-17T17:08:47.448Z,11.87
2023-03-17T17:11:15.879Z,11.73
2023-03-17T17:13:44.484Z,11.98
2023-03-17T17:16:28.057Z,9.90
2023-03-17T17:18:56.388Z,9.23
2023-03-17T17:21:23.453Z,10.97
2023-03-17T17:23:52.821Z,12.82
2023-03-17T17:26:20.152Z,10.00
2023-03-17T17:28:46.899Z,10.90
2023-03-17T17:31:14.098Z,12.30
2023-03-17T17:33:40.969Z,15.13
2023-03-17T17:36:14.520Z,11.07
2023-03-17T17:38:41.598Z,14.55
2023-03-17T17:41:10.850Z,14.25
2023-03-17T17:43:38.024Z,14.27
2023-03-17T17:46:11.008Z,15.87
2023-03-17T17:48:38.155Z,16.83
2023-03-17T17:51:05.100Z,15.05
2023-03-17T17:53:31.922Z,14.30
2023-03-17T17:55:58.908Z,14.15
2023-03-17T17:58:26.551Z,14.07
2023-03-17T18:00:57.538Z,13.25
2023-03-17T18:03:27.404Z,14.60
2023-03-17T18:05:56.190Z,14.85
2023-03-17T18:08:23.700Z,14.55
2023-03-17T18:10:52.105Z,14.20
2023-03-17T18:13:19.276Z,15.40
2023-03-17T18:15:46.108Z,20.13
2023-03-17T18:18:13.003Z,17.35
2023-03-17T18:20:40.310Z,16.92
2023-03-17T18:23:08.043Z,15.37
2023-03-17T18:25:34.921Z,17.35
2023-03-17T18:28:01.814Z,16.73
2023-03-17T18:30:31.730Z,16.13
2023-03-17T18:33:04.780Z,16.80
2023-03-17T18:35:32.093Z,15.63
2023-03-17T18:37:59.139Z,16.55
2023-03-17T18:40:26.502Z,14.50
2023-03-17T18:42:55.373Z,16.05
2023-03-17T18:45:22.315Z,13.35
2023-03-17T18:47:49.196Z,14.97
2023-03-17T18:50:17.539Z,12.25
2023-03-17T18:52:45.693Z,15.05
2023-03-17T18:55:14.613Z,14.27
2023-03-17T18:57:44.633Z,11.93
2023-03-17T19:00:14.116Z,13.80
2023-03-17T19:02:40.996Z,10.68
2023-03-17T19:05:09.150Z,12.63
2023-03-17T19:07:37.965Z,12.02
2023-03-17T19:10:07.558Z,12.50
2023-03-17T19:12:34.448Z,12.40
2023-03-17T19:15:01.763Z,16.27
2023-03-17T19:17:28.780Z,17.05
2023-03-17T19:19:56.254Z,12.48
2023-03-17T19:22:24.191Z,12.00
2023-03-17T19:24:50.966Z,14.80
2023-03-17T19:27:18.030Z,13.27
2023-03-17T19:29:44.985Z,16.00
2023-03-17T19:32:11.783Z,13.35
2023-03-17T19:34:38.678Z,16.92
2023-03-17T19:37:05.808Z,13.03
2023-03-17T19:39:33.854Z,15.25
2023-03-17T19:42:00.965Z,17.65
2023-03-17T19:44:27.816Z,13.18
2023-03-17T19:46:55.070Z,14.60
2023-03-17T19:49:22.333Z,12.97
2023-03-17T19:51:49.873Z,14.02
2023-03-17T19:54:18.691Z,14.75
2023-03-17T19:56:45.712Z,15.82
2023-03-17T19:59:12.431Z,13.23
2023-03-17T20:01:39.767Z,16.63
2023-03-17T20:04:10.730Z,13.82
2023-03-17T20:06:38.086Z,14.15
2023-03-17T20:09:05.781Z,12.68
2023-03-17T20:11:35.234Z,16.90
2023-03-17T20:14:03.294Z,13.80
2023-03-17T20:16:33.560Z,14.00
2023-03-17T20:19:06.907Z,10.90
2023-03-17T20:21:33.752Z,13.73
2023-03-17T20:24:00.888Z,11.75
2023-03-17T20:26:28.709Z,12.10
2023-03-17T20:28:56.042Z,15.40
2023-03-17T20:31:23.494Z,13.43
2023-03-17T20:33:50.593Z,16.17
2023-03-17T20:36:17.316Z,11.93
2023-03-17T20:38:44.048Z,10.77
2023-03-17T20:41:13.832Z,11.93
2023-03-17T20:43:41.605Z,11.15
2023-03-17T20:46:15.246Z,11.65
2023-03-17T20:48:43.265Z,12.82
2023-03-17T20:51:16.334Z,13.80
2023-03-17T20:53:47.538Z,13.65
2023-03-17T20:56:16.055Z,11.27
2023-03-17T20:58:45.395Z,13.60
2023-03-17T21:01:12.871Z,11.90
2023-03-17T21:03:41.384Z,12.23
2023-03-17T21:06:09.664Z,11.73
2023-03-17T21:08:37.718Z,14.43
2023-03-17T21:11:09.207Z,13.35
2023-03-17T21:13:36.474Z,12.32
2023-03-17T21:16:03.486Z,12.93
2023-03-17T21:18:30.495Z,13.30
2023-03-17T21:20:57.329Z,14.40
2023-03-17T21:23:24.294Z,17.35
2023-03-17T21:26:02.159Z,15.88
2023-03-17T21:28:28.916Z,14.73
2023-03-17T21:30:55.688Z,11.90
2023-03-17T21:33:22.507Z,13.52
2023-03-17T21:35:49.417Z,14.15
2023-03-17T21:38:16.676Z,14.32
2023-03-17T21:40:43.431Z,15.07
2023-03-17T21:43:11.365Z,17.75
2023-03-17T21:45:39.154Z,12.82
2023-03-17T21:48:06.153Z,15.75
2023-03-17T21:50:33.591Z,14.27
2023-03-17T21:53:00.686Z,13.63
2023-03-17T21:55:27.527Z,17.55
2023-03-17T21:57:54.266Z,14.60
2023-03-17T22:00:23.624Z,12.70
2023-03-17T22:02:51.524Z,15.38
2023-03-17T22:05:18.694Z,14.10
2023-03-17T22:07:45.702Z,17.33
2023-03-17T22:10:12.498Z,14.18
2023-03-17T22:12:39.512Z,17.63
2023-03-17T22:15:08.915Z,16.33
2023-03-17T22:17:36.397Z,15.27
2023-03-17T22:20:06.747Z,17.15
2023-03-17T22:22:34.931Z,13.98
2023-03-17T22:25:05.484Z,16.73
2023-03-17T22:27:32.957Z,16.50
2023-03-17T22:29:59.706Z,17.03
2023-03-17T22:32:26.572Z,17.25
2023-03-17T22:34:53.409Z,15.65
2023-03-17T22:37:20.219Z,16.25
2023-03-17T22:39:48.350Z,19.13
2023-03-17T22:42:15.106Z,20.30
2023-03-17T22:44:42.038Z,16.75
2023-03-17T22:47:08.991Z,18.00
2023-03-17T22:49:36.218Z,17.48
2023-03-17T22:52:03.277Z,17.50
2023-03-17T22:54:30.060Z,16.10
2023-03-17T22:56:57.478Z,18.80
2023-03-17T22:59:24.174Z,21.20
2023-03-17T23:01:50.949Z,18.15
2023-03-17T23:04:18.806Z,19.33
2023-03-17T23:06:47.375Z,17.50
2023-03-17T23:09:14.606Z,16.92
2023-03-17T23:11:42.365Z,19.63
2023-03-17T23:14:09.250Z,22.05
2023-03-17T23:16:37.640Z,20.90
2023-03-17T23:19:05.391Z,18.63
2023-03-17T23:21:40.857Z,20.45
2023-03-17T23:24:08.709Z,21.38
2023-03-17T23:26:37.160Z,23.63
2023-03-17T23:29:07.125Z,19.85
2023-03-17T23:31:34.510Z,22.83
2023-03-17T23:34:01.928Z,17.40
2023-03-17T23:36:28.887Z,20.65
2023-03-17T23:38:55.928Z,19.38
2023-03-17T23:41:22.726Z,18.50
2023-03-17T23:43:49.962Z,20.40
2023-03-17T23:46:17.774Z,18.95
2023-03-17T23:48:45.552Z,19.80
2023-03-17T23:51:12.981Z,20.25
2023-03-17T23:53:40.099Z,22.83
2023-03-17T23:56:07.907Z,20.70
2023-03-17T23:58:34.726Z,23.65
